createdAt,value
2023-02-01T00:01:10.774Z,100310.75
2023-02-01T00:03:38.483Z,100314.84
2023-02-01T00:06:06.392Z,100315.56
2023-02-01T00:08:33.967Z,100300.25
2023-02-01T00:11:10.187Z,100302.50
2023-02-01T00:13:40.522Z,100304.00
2023-02-01T00:16:10.916Z,100305.81
2023-02-01T00:18:38.219Z,100293.78
2023-02-01T00:21:05.940Z,100297.91
2023-02-01T00:23:36.035Z,100304.19
2023-02-01T00:26:05.309Z,100305.53
2023-02-01T00:28:33.071Z,100308.59
2023-02-01T00:31:02.241Z,100316.09
2023-02-01T00:33:30.656Z,100315.22
2023-02-01T00:36:03.938Z,100313.16
2023-02-01T00:38:32.198Z,100311.38
2023-02-01T00:41:08.334Z,100304.06
2023-02-01T00:43:35.866Z,100303.97
2023-02-01T00:46:03.736Z,100302.38
2023-02-01T00:48:31.334Z,100308.28
2023-02-01T00:51:03.954Z,100318.25
2023-02-01T00:53:31.594Z,100307.84
2023-02-01T00:55:59.198Z,100306.81
2023-02-01T00:58:27.134Z,100309.50
2023-02-01T01:01:10.232Z,100309.56
2023-02-01T01:03:40.113Z,100304.94
2023-02-01T01:06:11.366Z,100305.91
2023-02-01T01:08:40.145Z,100297.63
2023-02-01T01:11:11.339Z,100306.78
2023-02-01T01:13:39.249Z,100298.56
2023-02-01T01:16:08.231Z,100302.97
2023-02-01T01:18:36.575Z,100303.22
2023-02-01T01:21:06.316Z,100307.84
2023-02-01T01:23:34.503Z,100298.81
2023-02-01T01:26:07.149Z,100305.88
2023-02-01T01:28:35.309Z,100292.94
2023-02-01T01:31:03.614Z,100300.00
2023-02-01T01:33:30.953Z,100290.97
2023-02-01T01:35:58.240Z,100288.25
2023-02-01T01:38:25.552Z,100291.81
2023-02-01T01:40:52.918Z,100290.50
2023-02-01T01:43:21.317Z,100295.63
2023-02-01T01:45:48.951Z,100294.66
2023-02-01T01:48:29.094Z,100291.97
2023-02-01T01:51:02.604Z,100295.00
2023-02-01T01:53:43.302Z,100289.88
2023-02-01T01:56:11.719Z,100300.44
2023-02-01T01:58:39.220Z,100297.19
2023-02-01T02:01:06.692Z,100296.06
2023-02-01T02:03:43.418Z,100302.25
2023-02-01T02:06:36.120Z,100301.81
2023-02-01T02:09:06.919Z,100299.69
2023-02-01T02:11:34.846Z,100303.78
2023-02-01T02:14:03.454Z,100313.22
2023-02-01T02:16:45.865Z,100306.66
2023-02-01T02:19:55.091Z,100311.25
2023-02-01T02:22:22.303Z,100307.19
2023-02-01T02:24:58.262Z,100311.66
2023-02-01T02:27:44.301Z,100308.97
2023-02-01T02:30:20.974Z,100309.25
2023-02-01T02:33:32.943Z,100299.03
2023-02-01T02:36:00.463Z,100301.31
2023-02-01T02:38:40.247Z,100298.75
2023-02-01T02:41:35.999Z,100303.75
2023-02-01T02:44:10.525Z,100301.59
2023-02-01T02:46:41.984Z,100297.22
2023-02-01T02:49:35.592Z,100291.25
2023-02-01T02:52:13.991Z,100289.72
2023-02-01T02:54:46.852Z,100288.13
2023-02-01T02:57:19.435Z,100286.00
2023-02-01T02:59:48.846Z,100292.88
2023-02-01T03:02:17.124Z,100290.38
2023-02-01T03:04:44.639Z,100302.13
2023-02-01T03:07:36.035Z,100293.00
2023-02-01T03:10:12.208Z,100287.38
2023-02-01T03:12:43.150Z,100309.66
2023-02-01T03:15:13.280Z,100307.81
2023-02-01T03:17:44.264Z,100300.28
2023-02-01T03:20:15.312Z,100307.50
2023-02-01T03:22:44.877Z,100310.94
2023-02-01T03:25:20.148Z,100298.38
2023-02-01T03:28:04.771Z,100301.53
2023-02-01T03:30:45.146Z,100299.94
2023-02-01T03:33:24.210Z,100291.03
2023-02-01T03:35:51.416Z,100294.31
2023-02-01T03:38:21.629Z,100293.47
2023-02-01T03:40:57.483Z,100292.13
2023-02-01T03:43:28.761Z,100299.91
2023-02-01T03:46:02.393Z,100293.81
2023-02-01T03:48:30.844Z,100301.94
2023-02-01T03:51:01.412Z,100301.75
2023-02-01T03:53:29.505Z,100307.22
2023-02-01T03:55:58.132Z,100310.69
2023-02-01T03:58:25.351Z,100310.13
2023-02-01T04:00:57.134Z,100309.22
2023-02-01T04:03:25.506Z,100303.97
2023-02-01T04:05:54.027Z,100315.25
2023-02-01T04:08:22.244Z,100320.31
2023-02-01T04:10:49.753Z,100314.44
2023-02-01T04:13:17.120Z,100320.53
2023-02-01T04:15:44.378Z,100322.78
2023-02-01T04:18:11.648Z,100314.31
2023-02-01T04:20:39.500Z,100316.38
2023-02-01T04:23:06.772Z,100316.47
2023-02-01T04:25:34.477Z,100309.94
2023-02-01T04:28:01.696Z,100323.16
2023-02-01T04:30:29.038Z,100315.19
2023-02-01T04:32:56.638Z,100312.75
2023-02-01T04:35:23.872Z,100305.97
2023-02-01T04:37:51.127Z,100315.94
2023-02-01T04:40:18.435Z,100314.19
2023-02-01T04:42:45.806Z,100315.53
2023-02-01T04:45:13.051Z,100324.84
2023-02-01T04:47:40.261Z,100331.31
2023-02-01T04:50:07.960Z,100330.78
2023-02-01T04:52:35.180Z,100326.25
2023-02-01T04:55:02.703Z,100324.34
2023-02-01T04:57:30.143Z,100307.94
2023-02-01T05:00:10.174Z,100304.13
2023-02-01T05:02:37.553Z,100315.59
2023-02-01T05:05:05.858Z,100307.38
2023-02-01T05:07:33.510Z,100315.72
2023-02-01T05:10:01.276Z,100316.56
2023-02-01T05:12:29.148Z,100309.38
2023-02-01T05:14:59.577Z,100313.81
2023-02-01T05:17:27.703Z,100318.13
2023-02-01T05:19:55.606Z,100318.56
2023-02-01T05:22:23.499Z,100312.56
2023-02-01T05:25:08.213Z,100313.06
2023-02-01T05:27:38.790Z,100315.13
2023-02-01T05:30:07.633Z,100319.22
2023-02-01T05:32:37.393Z,100330.31
2023-02-01T05:35:12.231Z,100329.28
2023-02-01T05:37:42.759Z,100324.59
2023-02-01T05:40:14.572Z,100326.31
2023-02-01T05:42:47.084Z,100331.34
2023-02-01T05:45:14.307Z,100333.69
2023-02-01T05:47:44.172Z,100334.75
2023-02-01T05:50:17.588Z,100328.94
2023-02-01T05:52:50.121Z,100314.28
2023-02-01T05:55:23.236Z,100324.00
2023-02-01T05:57:53.181Z,100326.81
2023-02-01T06:00:24.127Z,100333.03
2023-02-01T06:02:55.535Z,100334.44
2023-02-01T06:05:35.502Z,100335.13
2023-02-01T06:08:06.653Z,100328.25
2023-02-01T06:10:40.042Z,100336.84
2023-02-01T06:13:11.390Z,100333.66
2023-02-01T06:15:47.673Z,100326.91
2023-02-01T06:18:17.947Z,100327.50
2023-02-01T06:20:45.467Z,100333.81
2023-02-01T06:23:13.365Z,100326.66
2023-02-01T06:25:59.724Z,100326.34
2023-02-01T06:28:31.561Z,100325.47
2023-02-01T06:31:06.725Z,100314.59
2023-02-01T06:33:42.790Z,100319.97
2023-02-01T06:36:11.889Z,100324.91
2023-02-01T06:38:39.761Z,100332.22
2023-02-01T06:41:07.586Z,100332.31
2023-02-01T06:43:34.923Z,100335.00
2023-02-01T06:46:04.168Z,100335.22
2023-02-01T06:48:31.685Z,100328.22
2023-02-01T06:50:59.246Z,100329.59
2023-02-01T06:53:26.715Z,100336.72
2023-02-01T06:55:55.946Z,100333.53
2023-02-01T06:58:23.693Z,100338.75
2023-02-01T07:00:51.282Z,100333.22
2023-02-01T07:03:21.297Z,100338.13
2023-02-01T07:05:48.537Z,100341.63
2023-02-01T07:08:17.409Z,100335.66
2023-02-01T07:10:44.783Z,100344.53
2023-02-01T07:13:12.054Z,100349.94
2023-02-01T07:15:41.552Z,100346.00
2023-02-01T07:18:08.762Z,100341.16
2023-02-01T07:20:35.951Z,100341.53
2023-02-01T07:23:03.190Z,100337.72
2023-02-01T07:25:30.425Z,100331.34
2023-02-01T07:27:58.504Z,100339.94
2023-02-01T07:30:25.848Z,100346.03
2023-02-01T07:32:53.232Z,100343.19
2023-02-01T07:35:20.813Z,100348.88
2023-02-01T07:37:48.093Z,100337.16
2023-02-01T07:40:15.416Z,100341.06
2023-02-01T07:42:42.748Z,100340.94
2023-02-01T07:45:20.979Z,100337.00
2023-02-01T07:47:49.535Z,100343.22
2023-02-01T07:50:17.118Z,100345.00
2023-02-01T07:52:44.616Z,100343.38
2023-02-01T07:55:11.909Z,100341.72
2023-02-01T07:57:39.219Z,100347.34
2023-02-01T08:00:08.018Z,100351.47
2023-02-01T08:02:35.427Z,100340.38
2023-02-01T08:05:02.990Z,100348.88
2023-02-01T08:07:30.300Z,100353.00
2023-02-01T08:09:57.521Z,100345.13
2023-02-01T08:12:26.425Z,100331.13
2023-02-01T08:14:54.234Z,100329.63
2023-02-01T08:17:21.449Z,100332.00
2023-02-01T08:19:48.689Z,100335.66
2023-02-01T08:22:15.973Z,100329.31
2023-02-01T08:24:43.822Z,100325.16
2023-02-01T08:27:11.360Z,100326.72
2023-02-01T08:29:39.132Z,100305.34
2023-02-01T08:32:06.701Z,100321.31
2023-02-01T08:34:35.769Z,100305.16
2023-02-01T08:37:03.181Z,100304.06
2023-02-01T08:39:30.442Z,100305.97
2023-02-01T08:41:57.914Z,100311.25
2023-02-01T08:44:26.211Z,100299.00
2023-02-01T08:46:53.452Z,100298.13
2023-02-01T08:49:20.714Z,100298.94
2023-02-01T08:51:48.152Z,100288.34
2023-02-01T08:54:15.449Z,100295.66
2023-02-01T08:56:42.688Z,100296.78
2023-02-01T08:59:10.000Z,100297.91
2023-02-01T09:01:37.250Z,100290.22
2023-02-01T09:04:04.612Z,100292.25
2023-02-01T09:06:31.868Z,100286.09
2023-02-01T09:08:59.123Z,100293.31
2023-02-01T09:11:26.361Z,100291.28
2023-02-01T09:13:53.676Z,100290.72
2023-02-01T09:16:21.089Z,100294.19
2023-02-01T09:18:56.153Z,100303.03
2023-02-01T09:21:35.745Z,100309.25
2023-02-01T09:24:03.104Z,100303.66
2023-02-01T09:26:32.518Z,100287.41
2023-02-01T09:29:01.536Z,100303.88
2023-02-01T09:31:29.845Z,100302.38
2023-02-01T09:33:57.448Z,100300.56
2023-02-01T09:36:24.788Z,100298.97
2023-02-01T09:38:53.153Z,100297.09
2023-02-01T09:41:43.959Z,100283.44
2023-02-01T09:44:42.423Z,100280.72
2023-02-01T09:47:14.234Z,100292.81
2023-02-01T09:49:51.616Z,100289.09
2023-02-01T09:52:26.127Z,100293.09
2023-02-01T09:55:12.698Z,100294.16
2023-02-01T09:57:59.286Z,100277.06
2023-02-01T10:00:31.220Z,100279.16
2023-02-01T10:02:58.673Z,100266.56
2023-02-01T10:05:49.509Z,100265.28
2023-02-01T10:08:23.721Z,100269.53
2023-02-01T10:10:51.329Z,100266.63
2023-02-01T10:13:33.891Z,100262.06
2023-02-01T10:16:07.734Z,100255.72
2023-02-01T10:18:41.033Z,100250.34
2023-02-01T10:21:33.557Z,100251.41
2023-02-01T10:24:25.661Z,100234.94
2023-02-01T10:27:17.829Z,100235.63
2023-02-01T10:29:51.087Z,100240.44
2023-02-01T10:32:24.347Z,100231.22
2023-02-01T10:35:09.907Z,100216.56
2023-02-01T10:37:37.294Z,100219.75
2023-02-01T10:40:16.724Z,100224.97
2023-02-01T10:42:44.942Z,100214.38
2023-02-01T10:45:18.877Z,100206.81
2023-02-01T10:47:47.461Z,100201.88
2023-02-01T10:50:23.797Z,100192.22
2023-02-01T10:52:58.169Z,100189.16
2023-02-01T10:55:29.902Z,100192.66
2023-02-01T10:58:01.682Z,100191.06
2023-02-01T11:00:35.483Z,100195.34
2023-02-01T11:03:43.588Z,100183.84
2023-02-01T11:06:23.138Z,100181.44
2023-02-01T11:08:53.738Z,100182.78
2023-02-01T11:11:22.127Z,100165.41
2023-02-01T11:13:56.021Z,100154.22
2023-02-01T11:16:30.819Z,100175.28
2023-02-01T11:18:59.277Z,100165.16
2023-02-01T11:21:27.010Z,100172.91
2023-02-01T11:23:54.665Z,100166.50
2023-02-01T11:26:27.140Z,100158.91
2023-02-01T11:29:03.873Z,100149.91
2023-02-01T11:31:33.537Z,100158.94
2023-02-01T11:34:08.564Z,100152.81
2023-02-01T11:36:37.809Z,100160.41
2023-02-01T11:39:15.884Z,100157.06
2023-02-01T11:41:44.347Z,100151.69
2023-02-01T11:44:38.393Z,100136.25
2023-02-01T11:47:22.894Z,100151.03
2023-02-01T11:49:52.927Z,100150.75
2023-02-01T11:52:38.964Z,100144.84
2023-02-01T11:55:15.605Z,100147.13
2023-02-01T11:58:07.450Z,100149.19
2023-02-01T12:00:40.398Z,100150.66
2023-02-01T12:03:50.341Z,100148.47
2023-02-01T12:06:28.981Z,100147.91
2023-02-01T12:09:05.320Z,100150.22
2023-02-01T12:11:54.073Z,100149.28
2023-02-01T12:14:42.484Z,100150.13
2023-02-01T12:17:12.906Z,100150.75
2023-02-01T12:19:56.149Z,100146.03
2023-02-01T12:22:54.864Z,100140.63
2023-02-01T12:25:31.923Z,100141.16
2023-02-01T12:28:31.351Z,100146.38
2023-02-01T12:31:21.035Z,100139.78
2023-02-01T12:34:27.439Z,100141.63
2023-02-01T12:37:17.377Z,100127.28
2023-02-01T12:40:25.623Z,100136.47
2023-02-01T12:43:05.324Z,100127.13
2023-02-01T12:45:56.834Z,100133.00
2023-02-01T12:48:29.140Z,100129.47
2023-02-01T12:51:05.528Z,100118.41
2023-02-01T12:53:51.524Z,100125.91
2023-02-01T12:56:32.507Z,100130.66
2023-02-01T12:59:05.155Z,100133.41
2023-02-01T13:01:48.509Z,100125.91
2023-02-01T13:04:21.136Z,100128.06
2023-02-01T13:07:21.937Z,100135.78
2023-02-01T13:09:58.130Z,100134.44
2023-02-01T13:12:41.205Z,100134.44
2023-02-01T13:15:14.636Z,100134.97
2023-02-01T13:17:44.494Z,100132.84
2023-02-01T13:20:22.754Z,100140.34
2023-02-01T13:23:00.229Z,100140.88
2023-02-01T13:25:34.652Z,100142.72
2023-02-01T13:28:07.941Z,100137.94
2023-02-01T13:31:01.511Z,100134.47
2023-02-01T13:33:54.124Z,100144.06
2023-02-01T13:36:23.094Z,100136.59
2023-02-01T13:39:05.766Z,100131.50
2023-02-01T13:42:04.635Z,100134.47
2023-02-01T13:45:00.711Z,100140.59
2023-02-01T13:47:28.010Z,100133.91
2023-02-01T13:49:59.194Z,100131.78
2023-02-01T13:52:31.124Z,100140.59
2023-02-01T13:55:29.576Z,100127.53
2023-02-01T13:58:20.290Z,100129.94
2023-02-01T14:00:49.890Z,100136.59
2023-02-01T14:03:21.653Z,100128.25
2023-02-01T14:05:52.280Z,100127.50
2023-02-01T14:08:41.028Z,100115.22
2023-02-01T14:11:48.383Z,100117.81
2023-02-01T14:14:16.070Z,100113.56
2023-02-01T14:16:44.694Z,100108.25
2023-02-01T14:19:21.264Z,100106.91
2023-02-01T14:21:54.201Z,100108.50
2023-02-01T14:24:32.050Z,100114.91
2023-02-01T14:27:18.215Z,100103.75
2023-02-01T14:29:53.584Z,100104.00
2023-02-01T14:32:23.434Z,100105.84
2023-02-01T14:34:54.091Z,100118.94
2023-02-01T14:37:22.092Z,100113.59
2023-02-01T14:39:56.062Z,100109.56
2023-02-01T14:42:28.637Z,100105.31
2023-02-01T14:45:17.208Z,100111.69
2023-02-01T14:47:44.582Z,100110.88
2023-02-01T14:50:19.554Z,100108.16
2023-02-01T14:52:48.523Z,100111.03
2023-02-01T14:55:26.172Z,100112.44
2023-02-01T14:57:58.656Z,100103.44
2023-02-01T15:00:29.898Z,100101.28
2023-02-01T15:03:24.513Z,100108.75
2023-02-01T15:06:01.274Z,100100.75
2023-02-01T15:08:38.996Z,100107.09
2023-02-01T15:11:16.416Z,100105.44
2023-02-01T15:13:53.822Z,100096.25
2023-02-01T15:16:23.027Z,100099.66
2023-02-01T15:18:50.941Z,100110.81
2023-02-01T15:21:29.813Z,100113.66
2023-02-01T15:24:19.822Z,100105.34
2023-02-01T15:26:47.503Z,100105.28
2023-02-01T15:29:15.624Z,100109.47
2023-02-01T15:31:48.816Z,100102.72
2023-02-01T15:34:16.435Z,100106.22
2023-02-01T15:36:56.909Z,100106.56
2023-02-01T15:39:29.807Z,100109.91
2023-02-01T15:41:58.985Z,100111.34
2023-02-01T15:44:33.643Z,100106.53
2023-02-01T15:47:08.642Z,100105.63
2023-02-01T15:49:42.664Z,100113.03
2023-02-01T15:52:21.802Z,100115.06
2023-02-01T15:54:52.970Z,100124.16
2023-02-01T15:57:25.690Z,100134.19
2023-02-01T15:59:54.142Z,100138.16
2023-02-01T16:02:41.980Z,100150.31
2023-02-01T16:05:37.283Z,100140.78
2023-02-01T16:08:17.573Z,100145.69
2023-02-01T16:10:47.908Z,100150.31
2023-02-01T16:13:16.737Z,100159.63
2023-02-01T16:15:44.608Z,100154.44
2023-02-01T16:18:13.201Z,100156.78
2023-02-01T16:20:42.421Z,100157.72
2023-02-01T16:23:10.843Z,100160.19
2023-02-01T16:25:39.118Z,100166.06
2023-02-01T16:28:06.521Z,100166.56
2023-02-01T16:30:34.326Z,100165.47
2023-02-01T16:33:02.969Z,100158.72
2023-02-01T16:35:36.585Z,100165.84
2023-02-01T16:38:12.720Z,100167.16
2023-02-01T16:40:41.084Z,100163.41
2023-02-01T16:43:32.524Z,100167.69
2023-02-01T16:46:01.984Z,100172.09
2023-02-01T16:48:32.251Z,100169.22
2023-02-01T16:51:02.610Z,100175.41
2023-02-01T16:53:36.520Z,100178.13
2023-02-01T16:56:17.561Z,100184.28
2023-02-01T16:58:45.575Z,100179.72
2023-02-01T17:01:15.130Z,100183.44
2023-02-01T17:03:42.839Z,100188.81
2023-02-01T17:06:12.279Z,100188.63
2023-02-01T17:08:43.281Z,100182.09
2023-02-01T17:11:12.701Z,100183.09
2023-02-01T17:13:41.409Z,100190.84
2023-02-01T17:16:23.665Z,100186.09
2023-02-01T17:18:57.577Z,100195.00
2023-02-01T17:21:28.594Z,100198.81
2023-02-01T17:23:56.323Z,100196.50
2023-02-01T17:26:23.680Z,100199.16
2023-02-01T17:28:51.339Z,100210.28
2023-02-01T17:31:18.814Z,100199.00
2023-02-01T17:33:46.259Z,100193.25
2023-02-01T17:36:16.674Z,100200.75
2023-02-01T17:38:50.843Z,100198.03
2023-02-01T17:41:21.256Z,100203.50
2023-02-01T17:43:50.535Z,100185.63
2023-02-01T17:46:18.232Z,100182.56
2023-02-01T17:48:45.717Z,100184.06
2023-02-01T17:51:18.420Z,100182.22
2023-02-01T17:53:46.709Z,100179.56
2023-02-01T17:56:22.445Z,100181.28
2023-02-01T17:58:49.989Z,100180.66
2023-02-01T18:01:24.300Z,100195.31
2023-02-01T18:04:13.167Z,100195.00
2023-02-01T18:06:58.391Z,100186.13
2023-02-01T18:09:43.584Z,100182.81
2023-02-01T18:12:28.744Z,100195.88
2023-02-01T18:15:23.587Z,100192.16
2023-02-01T18:18:08.959Z,100194.53
2023-02-01T18:20:53.694Z,100196.94
2023-02-01T18:23:38.739Z,100199.16
2023-02-01T18:26:23.840Z,100204.72
2023-02-01T18:29:10.106Z,100197.75
2023-02-01T18:31:55.200Z,100210.09
2023-02-01T18:34:40.499Z,100221.78
2023-02-01T18:37:25.574Z,100230.53
2023-02-01T18:40:19.828Z,100228.47
2023-02-01T18:43:05.209Z,100234.25
2023-02-01T18:45:51.142Z,100233.34
2023-02-01T18:48:36.819Z,100219.41
2023-02-01T18:51:22.560Z,100228.84
2023-02-01T18:54:09.845Z,100231.91
2023-02-01T18:56:58.447Z,100229.13
2023-02-01T18:59:43.325Z,100238.94
2023-02-01T19:02:31.000Z,100236.53
2023-02-01T19:05:16.526Z,100234.44
2023-02-01T19:08:01.511Z,100229.06
2023-02-01T19:10:46.784Z,100228.47
2023-02-01T19:13:32.101Z,100238.09
2023-02-01T19:16:18.241Z,100235.84
2023-02-01T19:19:03.221Z,100234.56
2023-02-01T19:21:48.277Z,100238.13
2023-02-01T19:24:33.480Z,100235.69
2023-02-01T19:27:19.155Z,100226.75
2023-02-01T19:30:05.234Z,100240.56
2023-02-01T19:32:51.461Z,100232.38
2023-02-01T19:35:36.984Z,100247.19
2023-02-01T19:38:22.241Z,100238.13
2023-02-01T19:41:07.110Z,100242.38
2023-02-01T19:43:52.328Z,100235.78
2023-02-01T19:46:37.177Z,100219.56
2023-02-01T19:49:23.300Z,100223.47
2023-02-01T19:52:08.754Z,100224.81
2023-02-01T19:54:53.929Z,100218.75
2023-02-01T19:57:38.993Z,100215.66
2023-02-01T20:00:23.406Z,100214.69
2023-02-01T20:03:08.801Z,100206.31
2023-02-01T20:05:55.596Z,100219.34
2023-02-01T20:08:40.577Z,100227.09
2023-02-01T20:11:26.891Z,100214.03
2023-02-01T20:14:12.589Z,100219.84
2023-02-01T20:16:57.596Z,100213.28
2023-02-01T20:19:42.587Z,100206.38
2023-02-01T20:22:27.491Z,100212.63
2023-02-01T20:25:12.544Z,100211.16
2023-02-01T20:27:58.344Z,100208.75
2023-02-01T20:30:45.299Z,100207.47
2023-02-01T20:33:30.694Z,100201.16
2023-02-01T20:36:15.966Z,100189.84
2023-02-01T20:39:01.248Z,100184.72
2023-02-01T20:41:46.255Z,100188.09
2023-02-01T20:44:31.748Z,100190.06
2023-02-01T20:47:16.712Z,100180.59
2023-02-01T20:50:01.540Z,100181.28
2023-02-01T20:52:46.663Z,100178.03
2023-02-01T20:55:31.711Z,100183.03
2023-02-01T20:58:16.752Z,100181.31
2023-02-01T21:01:02.089Z,100189.34
2023-02-01T21:03:47.356Z,100189.34
2023-02-01T21:06:32.136Z,100182.72
2023-02-01T21:09:17.260Z,100193.53
2023-02-01T21:12:02.357Z,100180.47
2023-02-01T21:14:47.569Z,100184.06
2023-02-01T21:17:32.829Z,100174.13
2023-02-01T21:20:18.584Z,100185.31
2023-02-01T21:23:03.966Z,100190.38
2023-02-01T21:25:49.252Z,100180.63
2023-02-01T21:28:34.615Z,100190.88
2023-02-01T21:31:20.344Z,100189.78
2023-02-01T21:34:05.591Z,100192.09
2023-02-01T21:36:50.876Z,100186.56
2023-02-01T21:39:36.047Z,100184.91
2023-02-01T21:42:21.106Z,100166.31
2023-02-01T21:45:06.847Z,100172.84
2023-02-01T21:47:52.156Z,100176.41
2023-02-01T21:50:37.226Z,100170.34
2023-02-01T21:53:22.299Z,100172.22
2023-02-01T21:56:07.508Z,100171.91
2023-02-01T21:58:52.724Z,100166.22
2023-02-01T22:01:39.205Z,100173.47
2023-02-01T22:04:24.301Z,100181.84
2023-02-01T22:07:09.998Z,100163.06
2023-02-01T22:09:55.423Z,100167.88
2023-02-01T22:12:40.337Z,100163.50
2023-02-01T22:15:26.012Z,100162.38
2023-02-01T22:18:11.087Z,100154.00
2023-02-01T22:21:00.188Z,100150.84
2023-02-01T22:23:45.519Z,100164.59
2023-02-01T22:26:30.531Z,100154.44
2023-02-01T22:29:16.044Z,100155.00
2023-02-01T22:32:01.599Z,100156.94
2023-02-01T22:34:46.960Z,100153.78
2023-02-01T22:37:32.270Z,100153.78
2023-02-01T22:40:17.885Z,100146.16
2023-02-01T22:43:03.135Z,100149.78
2023-02-01T22:45:48.218Z,100142.13
2023-02-01T22:48:38.855Z,100137.72
2023-02-01T22:51:26.949Z,100132.88
2023-02-01T22:54:17.751Z,100134.63
2023-02-01T22:57:03.251Z,100128.59
2023-02-01T22:59:48.347Z,100123.00
2023-02-01T23:02:33.621Z,100125.00
2023-02-01T23:05:19.875Z,100133.91
2023-02-01T23:08:05.237Z,100130.31
2023-02-01T23:10:50.673Z,100132.72
2023-02-01T23:13:36.976Z,100135.00
2023-02-01T23:16:22.154Z,100134.13
2023-02-01T23:19:07.968Z,100127.00
2023-02-01T23:21:53.109Z,100133.66
2023-02-01T23:24:38.242Z,100138.00
2023-02-01T23:27:23.451Z,100137.34
2023-02-01T23:30:09.945Z,100138.72
2023-02-01T23:32:54.974Z,100136.84
2023-02-01T23:35:39.973Z,100141.16
2023-02-01T23:38:25.977Z,100155.44
2023-02-01T23:41:12.479Z,100152.88
2023-02-01T23:43:57.618Z,100156.16
2023-02-01T23:46:43.583Z,100150.19
2023-02-01T23:49:28.772Z,100154.66
2023-02-01T23:52:14.028Z,100160.88
2023-02-01T23:54:59.229Z,100161.31
2023-02-01T23:57:44.232Z,100158.00
